Česky Dansk Deutsch English Español Suomi Français Magyar Italiano Nederlands norsk Polski Português svenska Türkçe

 

Het Weer

Siemreap (Kambodja)

00:00, 17 juli 2016 (GMT)

NWNNE
WE
SWSSE
Home            
Siemreap Chanthaburi Phnom-Penh / Pochentong Kompong-Cham Ubon Ratchathani Pakse Nakhon Ratchasima Prachin Buri Rayong Roi Et Chon Buri Chaiyaphum Don Muang Khon Kaen Attopeu Mukdahan Savannakhet Saravane Phetchaburi Ho Chi Minh Sakon Nakhon Hua Hin Pleiku City

Om een weerknop op uw website of weblog te plaatsen, copieer onderstaande code en plak die in uw pagina. In het eerste vakje staat HTML-code, in het tweede vakje UBB-code.


Add to Google

Details

Visibility: 9000 m, 9.0 km, 29528 ft, 5.6 miles
Clouds:Ein wenig bewölkt at 2000 ft, 610 m
Temperature:27°C, 81°F
Gefühlte Temperatur:33°C, 91°F
Dew-point:27°C, 81°F
Atmospheric pressure:1009 hPa, 756.8 mmHg, 29.80 inHg, 0.996 atm
Relative humidity:100.0 %
METAR:VDSR 170000Z 00000KT 9000 FEW020 27/27 Q1009

Snelkoppelingen

Actuele weersinformatie van de hele wereld. Voeg locaties toe met het plus (+) symbool. Deze snelkoppelingen kunnen worden toegevoegd aan Google.

Lid van de Technetium groep

website free tracking
StatCounter NetStat W3C Validator

08-08-2020 05:31:44
astro.technetium.be money.technetium.be phote.technetium.be tafeltennistafel.technetium.be www.ligfiets.net